Logo AVAMET
Benvolgut visitant, si us plau, ingressa Recuperar contrasenya

Inforatge Albuixec

Dades diàries. Acumulats / Últims 30 dies disponibles

Data Temperatura (°C) Humitat rel. (%) Pressió rel. (hPa) Vent (km/h) Precipitació
Mínima Mitjana Màxima Amplitud
tèrmica
Mínima Mitjana Màxima Mínima Mitjana Màxima Predom. Mitjana Ràfega
màxima
Total
(mm)
Índex-n
Mínima Mitjana Màxima Mínima Mitjana Màxima n
0 a 1
P0 max
mm 5'
Dades mensuals acumulades fins l'últim dia disponible
12/2019 7,3 10,1 12,2 12,5 13,5 15,7 19,0 11,7 41 81 94 1.006 1.019 1.027   10,0 64,4 61,8
Dades anuals acumulades fins l'últim dia disponible
2019 0,7 13,9 25,8 18,1 10,8 22,2 41,6 40,9 14 69 96 994 1.019 1.038   8,7 82,0 263,9
Últims 30 dies disponibles
08-12-2019 7,3     12,1     18,4 11,1 57 78 91 1.022 1.025 1.027 SW 5,1 19,3 0,0
07-12-2019 7,8     11,2     16,6 8,8 61 84 93 1.024 1.026 1.027 W 4,0 16,1 0,0
06-12-2019 10,0     12,6     14,9 4,9 81 89 94 1.024 1.025 1.027 WNW 5,3 27,4 0,0
05-12-2019 11,3     12,1     13,5 2,2 87 91 94 1.012 1.019 1.025 N 11,3 37,0 11,6 0,48 0,80
04-12-2019 10,9     12,1     14,4 3,5 68 85 92 1.006 1.009 1.014 N 17,5 64,4 33,6 0,42 1,60
03-12-2019 9,7     11,2     14,2 4,5 69 78 88 1.014 1.018 1.020 N 12,1 45,1 8,6 0,20
02-12-2019 11,4     13,1     14,6 3,2 60 74 85 1.014 1.017 1.020 N 16,1 46,7 8,0 0,42 0,40
01-12-2019 12,2     15,4     19,0 6,8 41 68 86 1.012 1.014 1.016 WSW 8,5 38,6 0,0
30-11-2019 11,0     16,7     22,8 11,8 49 67 84 1.016 1.020 1.023 OSO 7,2 30,6 0,0
29-11-2019 13,7     18,0     22,6 8,9 52 64 78 1.017 1.020 1.023 SW 8,0 33,8 0,0
28-11-2019 13,8     16,6     20,0 6,2 51 59 67 1.015 1.017 1.019 SW 16,6 46,7 0,0
27-11-2019 15,9     18,4     21,6 5,7 42 57 69 1.010 1.012 1.015 WSW 16,6 53,1 0,0
26-11-2019 12,1     17,7     23,3 11,2 46 63 78 1.011 1.013 1.017 WSW 11,3 43,5 0,0
25-11-2019 13,4     17,1     22,7 9,3 43 59 72 1.013 1.015 1.017 WSW 13,8 40,2 0,0
24-11-2019 9,7     14,3     19,6 9,9 35 50 64 1.009 1.013 1.016 WSW 8,7 30,6 0,0
23-11-2019 12,7     14,9     18,3 5,6 37 55 78 994 1.000 1.009 WSW 15,6 51,5 0,0
22-11-2019 9,6     13,2     16,2 6,6 68 81 90 995 1.004 1.010 WSW 4,2 32,2 0,8
21-11-2019 7,9     12,4     16,6 8,7 56 72 82 1.010 1.011 1.012 SW 6,0 25,7 0,0
20-11-2019 7,1     11,5     16,4 9,3 45 64 79 1.011 1.014 1.017 W 6,8 27,4 0,0
19-11-2019 4,7     10,6     16,4 11,7 34 57 73 1.016 1.018 1.020 W 6,8 27,4 0,0
18-11-2019 8,7     12,2     15,4 6,7 45 60 78 1.009 1.013 1.018 W 6,8 24,1 0,0
17-11-2019 5,9     11,5     16,3 10,4 41 57 72 1.011 1.014 1.016 WSW 13,4 48,3 0,0
16-11-2019 6,3     10,7     15,2 8,9 45 58 69 1.008 1.013 1.017 W 7,4 27,4 0,0
15-11-2019 6,5     11,6     16,3 9,8 37 55 74 1.002 1.005 1.008 W 10,0 38,6 0,0
14-11-2019 9,1     13,6     17,1 8,0 45 62 85 1.002 1.004 1.011 WSW 13,7 54,7 0,0
13-11-2019 11,7     15,0     18,7 7,0 46 70 85 1.006 1.010 1.013 SSW 7,7 30,6 0,6
12-11-2019 11,8     15,5     19,5 7,7 35 42 50 1.011 1.013 1.015 NW 12,1 41,8 0,0
11-11-2019 8,7     14,2     19,3 10,6 35 48 59 1.012 1.015 1.017 WNW 7,9 35,4 0,0
10-11-2019 10,6     13,9     17,3 6,7 35 47 69 1.012 1.014 1.016 WNW 16,1 56,3 0,0
09-11-2019 12,3     15,5     19,9 7,6 32 44 58 1.015 1.018 1.021 WSW 14,8 46,7 0,0
Últims 13 mesos disponibles
11/2019 4,7 11,5 20,7 15,6 15,2 20,0 28,9 24,2 42 57 81 1.000 1.012 1.020 WSW 11,6 66,0 1,4
10/2019 10,7 15,6 20,6 19,7 17,3 24,1 28,2 17,5 47 72 86 1.009 1.018 1.024 WSW 6,6 41,8 19,2
09/2019 15,4 19,8 22,9 23,4 21,1 26,7 34,4 19,0 48 75 84 1.012 1.019 1.027 SSE 8,5 69,3 83,6
08/2019 17,9 22,0 25,8 25,7 26,6 29,1 41,6 23,7 47 74 84 1.012 1.018 1.022 SSE 8,1 59,6 4,1
07/2019 20,2 22,0 24,2 25,9 27,1 29,2 35,9 15,7 54 72 83 1.007 1.016 1.023 SSE 8,4 55,6 15,2
06/2019 11,8 17,7 22,0 21,8 20,5 25,1 31,2 19,4 49 70 84 1.010 1.017 1.024 SSE 8,8 61,1 0,0
05/2019 8,3 14,1 19,5 17,9 17,6 21,5 32,7 24,4 48 71 86 1.007 1.017 1.026 S 8,8 55,6 21,0
04/2019 8,3 11,2 14,4 14,9 15,4 19,0 26,4 18,1 49 69 93 1.001 1.015 1.027 SSO 11,4 82,0 44,2
03/2019 5,4 8,5 15,1 13,8 13,1 18,4 29,1 23,7 44 64 84 1.013 1.025 1.031 S 8,1 69,3 12,8
02/2019 2,2 6,0 11,1 11,2 13,4 16,6 23,4 21,2 34 68 82 996 1.027 1.036 SSO 7,8 72,4 0,0
01/2019 0,7 5,2 12,4 10,4 10,8 16,2 20,6 19,9 44 62 80 1.003 1.021 1.032 OSO 7,4 66,7 0,6
12/2018 3,6 7,9 11,9 12,3 14,1 17,7 23,4 19,8 52 72 88 1.010 1.027 1.032 OSO 6,2 53,7 10,2
11/2018 5,6 10,8 16,3 14,3 14,9 18,4 23,7 18,1 56 74 93 1.003 1.017 1.026 OSO 8,5 61,1 99,6
Tots els anys disponibles
2018 1,6 14,1 25,2 18,0 9,1 21,9 36,2 34,6 38 70 93 995 1.018 1.037 OSO 8,4 83,3 530,8
Temperatura (°C)
Humitat relativa (%)
Velocitat del vent i ràfega màxima (km/h)
Direcció del vent (°)
Pressió (hPa)
Precipitació (mm)
Nota sobre les dades: s'avisa a l'usuari de la provisionalitat i no oficialitat d'aquestes dades
Logo AVAMET blanc
Web allotjada a Sollutia
Llicència de Creative CommonsLa web d'AVAMET i els seus continguts estan subjectes a una llicència de
Reconeixement - No Comercial - Compartir igual
Últimes estacions: Aielo de Malferit - Centre (Soci), Faura (Inforatge), Benifairó de les Valls (Inforatge), Xàbia - Les Valls (Soci), Xàbia - Alt de la Granadella (Soci), Villena - Sierra de Salinas (Soci), Sueca - Centre (Inforatge) - - -